sensor_id;sensor_type;location;lat;lon;timestamp;P1;durP1;ratioP1;P2;durP2;ratioP2
11797;SDS011;5956;51.428;6.682;2023-04-25T00:01:29;10.70;;;4.93;;
11797;SDS011;5956;51.428;6.682;2023-04-25T00:03:57;7.57;;;5.20;;
11797;SDS011;5956;51.428;6.682;2023-04-25T00:06:23;11.70;;;5.40;;
11797;SDS011;5956;51.428;6.682;2023-04-25T00:08:52;10.47;;;5.50;;
11797;SDS011;5956;51.428;6.682;2023-04-25T00:11:20;10.90;;;5.20;;
11797;SDS011;5956;51.428;6.682;2023-04-25T00:13:47;10.77;;;5.23;;
11797;SDS011;5956;51.428;6.682;2023-04-25T00:16:14;9.70;;;5.53;;
11797;SDS011;5956;51.428;6.682;2023-04-25T00:18:41;9.27;;;5.93;;
11797;SDS011;5956;51.428;6.682;2023-04-25T00:21:07;12.63;;;6.20;;
11797;SDS011;5956;51.428;6.682;2023-04-25T00:23:34;11.07;;;6.00;;
11797;SDS011;5956;51.428;6.682;2023-04-25T00:26:02;8.50;;;5.97;;
11797;SDS011;5956;51.428;6.682;2023-04-25T00:28:29;14.03;;;5.77;;
11797;SDS011;5956;51.428;6.682;2023-04-25T00:30:55;12.47;;;5.83;;
11797;SDS011;5956;51.428;6.682;2023-04-25T00:33:22;11.40;;;5.80;;
11797;SDS011;5956;51.428;6.682;2023-04-25T00:35:48;12.40;;;6.50;;
11797;SDS011;5956;51.428;6.682;2023-04-25T00:38:15;8.63;;;5.70;;
11797;SDS011;5956;51.428;6.682;2023-04-25T00:40:41;12.20;;;6.57;;
11797;SDS011;5956;51.428;6.682;2023-04-25T00:43:10;12.93;;;6.57;;
11797;SDS011;5956;51.428;6.682;2023-04-25T00:45:38;10.93;;;5.63;;
11797;SDS011;5956;51.428;6.682;2023-04-25T00:48:04;10.53;;;6.00;;
11797;SDS011;5956;51.428;6.682;2023-04-25T00:50:32;10.83;;;5.77;;
11797;SDS011;5956;51.428;6.682;2023-04-25T00:52:59;8.70;;;5.13;;
11797;SDS011;5956;51.428;6.682;2023-04-25T00:55:27;13.27;;;5.70;;
11797;SDS011;5956;51.428;6.682;2023-04-25T00:57:53;9.77;;;5.37;;
11797;SDS011;5956;51.428;6.682;2023-04-25T01:00:21;9.70;;;5.53;;
11797;SDS011;5956;51.428;6.682;2023-04-25T01:02:48;13.70;;;5.80;;
11797;SDS011;5956;51.428;6.682;2023-04-25T01:05:14;10.90;;;5.93;;
11797;SDS011;5956;51.428;6.682;2023-04-25T01:07:41;8.37;;;5.63;;
11797;SDS011;5956;51.428;6.682;2023-04-25T01:10:08;11.73;;;5.80;;
11797;SDS011;5956;51.428;6.682;2023-04-25T01:12:34;11.77;;;6.17;;
11797;SDS011;5956;51.428;6.682;2023-04-25T01:15:01;7.13;;;5.33;;
11797;SDS011;5956;51.428;6.682;2023-04-25T01:17:29;8.20;;;5.27;;
11797;SDS011;5956;51.428;6.682;2023-04-25T01:19:56;10.00;;;5.90;;
11797;SDS011;5956;51.428;6.682;2023-04-25T01:22:24;9.20;;;5.07;;
11797;SDS011;5956;51.428;6.682;2023-04-25T01:24:50;11.93;;;5.33;;
11797;SDS011;5956;51.428;6.682;2023-04-25T01:27:17;12.13;;;6.37;;
11797;SDS011;5956;51.428;6.682;2023-04-25T01:29:45;11.20;;;6.07;;
11797;SDS011;5956;51.428;6.682;2023-04-25T01:32:12;7.37;;;4.70;;
11797;SDS011;5956;51.428;6.682;2023-04-25T01:34:39;10.33;;;5.30;;
11797;SDS011;5956;51.428;6.682;2023-04-25T01:37:06;8.10;;;5.67;;
11797;SDS011;5956;51.428;6.682;2023-04-25T01:39:34;13.40;;;5.43;;
11797;SDS011;5956;51.428;6.682;2023-04-25T01:42:00;10.17;;;5.27;;
11797;SDS011;5956;51.428;6.682;2023-04-25T01:44:27;9.00;;;5.67;;
11797;SDS011;5956;51.428;6.682;2023-04-25T01:46:53;10.50;;;4.93;;
11797;SDS011;5956;51.428;6.682;2023-04-25T01:49:20;12.87;;;5.40;;
11797;SDS011;5956;51.428;6.682;2023-04-25T01:51:46;9.17;;;5.53;;
11797;SDS011;5956;51.428;6.682;2023-04-25T01:54:13;8.57;;;5.03;;
11797;SDS011;5956;51.428;6.682;2023-04-25T01:56:41;10.43;;;5.90;;
11797;SDS011;5956;51.428;6.682;2023-04-25T01:59:08;10.57;;;5.20;;
11797;SDS011;5956;51.428;6.682;2023-04-25T02:01:34;9.27;;;5.20;;
11797;SDS011;5956;51.428;6.682;2023-04-25T02:04:01;10.47;;;5.50;;
11797;SDS011;5956;51.428;6.682;2023-04-25T02:06:27;8.83;;;5.40;;
11797;SDS011;5956;51.428;6.682;2023-04-25T02:08:54;7.97;;;5.53;;
11797;SDS011;5956;51.428;6.682;2023-04-25T02:11:20;12.20;;;5.90;;
11797;SDS011;5956;51.428;6.682;2023-04-25T02:13:48;12.70;;;5.77;;
11797;SDS011;5956;51.428;6.682;2023-04-25T02:16:15;9.03;;;5.07;;
11797;SDS011;5956;51.428;6.682;2023-04-25T02:18:41;6.80;;;4.93;;
11797;SDS011;5956;51.428;6.682;2023-04-25T02:21:10;5.93;;;4.97;;
11797;SDS011;5956;51.428;6.682;2023-04-25T02:23:36;9.43;;;4.97;;
11797;SDS011;5956;51.428;6.682;2023-04-25T02:26:03;8.93;;;5.00;;
11797;SDS011;5956;51.428;6.682;2023-04-25T02:28:29;10.23;;;5.30;;
11797;SDS011;5956;51.428;6.682;2023-04-25T02:30:57;8.03;;;5.13;;
11797;SDS011;5956;51.428;6.682;2023-04-25T02:33:24;10.77;;;4.80;;
11797;SDS011;5956;51.428;6.682;2023-04-25T02:35:50;10.80;;;4.53;;
11797;SDS011;5956;51.428;6.682;2023-04-25T02:38:17;10.13;;;4.80;;
11797;SDS011;5956;51.428;6.682;2023-04-25T02:40:43;9.23;;;4.70;;
11797;SDS011;5956;51.428;6.682;2023-04-25T02:43:10;10.97;;;4.40;;
11797;SDS011;5956;51.428;6.682;2023-04-25T02:45:36;11.37;;;5.13;;
11797;SDS011;5956;51.428;6.682;2023-04-25T02:48:04;9.30;;;4.63;;
11797;SDS011;5956;51.428;6.682;2023-04-25T02:50:31;8.23;;;4.70;;
11797;SDS011;5956;51.428;6.682;2023-04-25T02:52:57;10.83;;;5.57;;
11797;SDS011;5956;51.428;6.682;2023-04-25T02:55:24;10.03;;;4.77;;
11797;SDS011;5956;51.428;6.682;2023-04-25T02:57:51;8.07;;;4.47;;
11797;SDS011;5956;51.428;6.682;2023-04-25T03:00:17;9.33;;;4.77;;
11797;SDS011;5956;51.428;6.682;2023-04-25T03:02:44;9.83;;;5.37;;
11797;SDS011;5956;51.428;6.682;2023-04-25T03:05:12;9.90;;;4.73;;
11797;SDS011;5956;51.428;6.682;2023-04-25T03:07:38;11.70;;;5.10;;
11797;SDS011;5956;51.428;6.682;2023-04-25T03:10:05;13.40;;;5.33;;
11797;SDS011;5956;51.428;6.682;2023-04-25T03:12:32;15.90;;;5.43;;
11797;SDS011;5956;51.428;6.682;2023-04-25T03:14:59;10.70;;;5.13;;
11797;SDS011;5956;51.428;6.682;2023-04-25T03:17:25;9.70;;;5.17;;
11797;SDS011;5956;51.428;6.682;2023-04-25T03:19:51;13.20;;;4.80;;
11797;SDS011;5956;51.428;6.682;2023-04-25T03:22:19;10.07;;;5.13;;
11797;SDS011;5956;51.428;6.682;2023-04-25T03:24:46;8.50;;;5.03;;
11797;SDS011;5956;51.428;6.682;2023-04-25T03:27:12;10.27;;;5.87;;
11797;SDS011;5956;51.428;6.682;2023-04-25T03:29:39;8.50;;;4.70;;
11797;SDS011;5956;51.428;6.682;2023-04-25T03:32:05;12.63;;;5.67;;
11797;SDS011;5956;51.428;6.682;2023-04-25T03:34:32;8.87;;;5.07;;
11797;SDS011;5956;51.428;6.682;2023-04-25T03:36:59;9.73;;;5.03;;
11797;SDS011;5956;51.428;6.682;2023-04-25T03:39:27;12.43;;;5.70;;
11797;SDS011;5956;51.428;6.682;2023-04-25T03:41:54;10.87;;;4.93;;
11797;SDS011;5956;51.428;6.682;2023-04-25T03:44:20;14.30;;;5.70;;
11797;SDS011;5956;51.428;6.682;2023-04-25T03:46:47;10.83;;;5.10;;
11797;SDS011;5956;51.428;6.682;2023-04-25T03:49:13;11.03;;;5.53;;
11797;SDS011;5956;51.428;6.682;2023-04-25T03:51:39;11.20;;;5.43;;
11797;SDS011;5956;51.428;6.682;2023-04-25T03:54:06;14.67;;;5.70;;
11797;SDS011;5956;51.428;6.682;2023-04-25T03:56:34;11.70;;;5.30;;
11797;SDS011;5956;51.428;6.682;2023-04-25T03:59:00;10.97;;;5.33;;
11797;SDS011;5956;51.428;6.682;2023-04-25T04:01:27;11.93;;;5.37;;
11797;SDS011;5956;51.428;6.682;2023-04-25T04:03:53;10.50;;;5.43;;
11797;SDS011;5956;51.428;6.682;2023-04-25T04:06:20;10.40;;;4.97;;
11797;SDS011;5956;51.428;6.682;2023-04-25T04:08:46;11.40;;;5.33;;
11797;SDS011;5956;51.428;6.682;2023-04-25T04:11:13;16.57;;;5.80;;
11797;SDS011;5956;51.428;6.682;2023-04-25T04:13:41;11.23;;;6.00;;
11797;SDS011;5956;51.428;6.682;2023-04-25T04:16:07;9.47;;;5.27;;
11797;SDS011;5956;51.428;6.682;2023-04-25T04:18:34;14.33;;;5.60;;
11797;SDS011;5956;51.428;6.682;2023-04-25T04:21:00;16.33;;;6.20;;
11797;SDS011;5956;51.428;6.682;2023-04-25T04:23:27;13.10;;;5.40;;
11797;SDS011;5956;51.428;6.682;2023-04-25T04:25:53;12.80;;;5.37;;
11797;SDS011;5956;51.428;6.682;2023-04-25T04:28:21;10.40;;;5.67;;
11797;SDS011;5956;51.428;6.682;2023-04-25T04:30:49;10.37;;;5.70;;
11797;SDS011;5956;51.428;6.682;2023-04-25T04:33:16;17.47;;;6.17;;
11797;SDS011;5956;51.428;6.682;2023-04-25T04:35:44;14.40;;;5.97;;
11797;SDS011;5956;51.428;6.682;2023-04-25T04:38:10;10.60;;;5.33;;
11797;SDS011;5956;51.428;6.682;2023-04-25T04:40:37;11.87;;;5.93;;
11797;SDS011;5956;51.428;6.682;2023-04-25T04:43:03;12.80;;;5.67;;
11797;SDS011;5956;51.428;6.682;2023-04-25T04:45:30;12.63;;;5.57;;
11797;SDS011;5956;51.428;6.682;2023-04-25T04:47:58;15.27;;;6.03;;
11797;SDS011;5956;51.428;6.682;2023-04-25T04:50:25;12.67;;;5.33;;
11797;SDS011;5956;51.428;6.682;2023-04-25T04:52:52;12.83;;;5.70;;
11797;SDS011;5956;51.428;6.682;2023-04-25T04:55:20;11.40;;;6.23;;
11797;SDS011;5956;51.428;6.682;2023-04-25T04:57:46;12.97;;;6.40;;
11797;SDS011;5956;51.428;6.682;2023-04-25T05:00:13;11.63;;;5.87;;
11797;SDS011;5956;51.428;6.682;2023-04-25T05:02:40;15.70;;;5.37;;
11797;SDS011;5956;51.428;6.682;2023-04-25T05:05:08;13.23;;;5.63;;
11797;SDS011;5956;51.428;6.682;2023-04-25T05:07:35;9.60;;;6.63;;
11797;SDS011;5956;51.428;6.682;2023-04-25T05:10:02;10.83;;;5.23;;
11797;SDS011;5956;51.428;6.682;2023-04-25T05:12:28;15.90;;;5.43;;
11797;SDS011;5956;51.428;6.682;2023-04-25T05:14:55;13.53;;;5.20;;
11797;SDS011;5956;51.428;6.682;2023-04-25T05:17:22;14.13;;;5.40;;
11797;SDS011;5956;51.428;6.682;2023-04-25T05:19:48;12.37;;;5.37;;
11797;SDS011;5956;51.428;6.682;2023-04-25T05:22:16;10.53;;;4.80;;
11797;SDS011;5956;51.428;6.682;2023-04-25T05:24:42;12.53;;;5.27;;
11797;SDS011;5956;51.428;6.682;2023-04-25T05:27:09;16.10;;;5.40;;
11797;SDS011;5956;51.428;6.682;2023-04-25T05:29:35;9.60;;;5.00;;
11797;SDS011;5956;51.428;6.682;2023-04-25T05:32:02;11.37;;;4.80;;
11797;SDS011;5956;51.428;6.682;2023-04-25T05:34:28;12.40;;;4.70;;
11797;SDS011;5956;51.428;6.682;2023-04-25T05:36:55;10.40;;;4.90;;
11797;SDS011;5956;51.428;6.682;2023-04-25T05:39:23;10.23;;;4.80;;
11797;SDS011;5956;51.428;6.682;2023-04-25T05:41:49;12.43;;;5.50;;
11797;SDS011;5956;51.428;6.682;2023-04-25T05:44:16;14.17;;;6.00;;
11797;SDS011;5956;51.428;6.682;2023-04-25T05:46:42;14.40;;;5.30;;
11797;SDS011;5956;51.428;6.682;2023-04-25T05:49:09;10.53;;;4.77;;
11797;SDS011;5956;51.428;6.682;2023-04-25T05:51:35;13.77;;;6.10;;
11797;SDS011;5956;51.428;6.682;2023-04-25T05:54:02;9.97;;;5.40;;
11797;SDS011;5956;51.428;6.682;2023-04-25T05:56:30;12.10;;;5.20;;
11797;SDS011;5956;51.428;6.682;2023-04-25T05:58:56;10.87;;;5.37;;
11797;SDS011;5956;51.428;6.682;2023-04-25T06:01:23;11.60;;;4.80;;
11797;SDS011;5956;51.428;6.682;2023-04-25T06:03:49;16.53;;;5.53;;
11797;SDS011;5956;51.428;6.682;2023-04-25T06:06:17;10.73;;;5.20;;
11797;SDS011;5956;51.428;6.682;2023-04-25T06:08:44;11.47;;;5.00;;
11797;SDS011;5956;51.428;6.682;2023-04-25T06:11:11;12.67;;;4.83;;
11797;SDS011;5956;51.428;6.682;2023-04-25T06:13:39;10.57;;;4.70;;
11797;SDS011;5956;51.428;6.682;2023-04-25T06:16:05;15.43;;;5.33;;
11797;SDS011;5956;51.428;6.682;2023-04-25T06:18:32;10.27;;;5.17;;
11797;SDS011;5956;51.428;6.682;2023-04-25T06:20:59;11.60;;;5.03;;
11797;SDS011;5956;51.428;6.682;2023-04-25T06:23:25;7.90;;;4.20;;
11797;SDS011;5956;51.428;6.682;2023-04-25T06:25:52;10.80;;;4.60;;
11797;SDS011;5956;51.428;6.682;2023-04-25T06:28:18;12.73;;;5.37;;
11797;SDS011;5956;51.428;6.682;2023-04-25T06:30:48;12.93;;;5.20;;
11797;SDS011;5956;51.428;6.682;2023-04-25T06:33:15;12.03;;;4.67;;
11797;SDS011;5956;51.428;6.682;2023-04-25T06:35:41;14.07;;;5.30;;
11797;SDS011;5956;51.428;6.682;2023-04-25T06:38:08;10.90;;;4.97;;
11797;SDS011;5956;51.428;6.682;2023-04-25T06:40:34;9.40;;;4.93;;
11797;SDS011;5956;51.428;6.682;2023-04-25T06:43:01;10.37;;;4.40;;
11797;SDS011;5956;51.428;6.682;2023-04-25T06:45:27;14.60;;;4.93;;
11797;SDS011;5956;51.428;6.682;2023-04-25T06:47:55;11.33;;;4.77;;
11797;SDS011;5956;51.428;6.682;2023-04-25T06:50:22;14.33;;;4.30;;
11797;SDS011;5956;51.428;6.682;2023-04-25T06:52:48;11.23;;;4.50;;
11797;SDS011;5956;51.428;6.682;2023-04-25T06:55:15;11.73;;;5.30;;
11797;SDS011;5956;51.428;6.682;2023-04-25T06:57:42;7.57;;;4.33;;
11797;SDS011;5956;51.428;6.682;2023-04-25T07:00:09;13.00;;;4.53;;
11797;SDS011;5956;51.428;6.682;2023-04-25T07:02:35;13.80;;;4.70;;
11797;SDS011;5956;51.428;6.682;2023-04-25T07:05:03;13.13;;;4.97;;
11797;SDS011;5956;51.428;6.682;2023-04-25T07:07:30;10.50;;;4.60;;
11797;SDS011;5956;51.428;6.682;2023-04-25T07:09:57;8.77;;;4.20;;
11797;SDS011;5956;51.428;6.682;2023-04-25T07:12:23;8.60;;;4.00;;
11797;SDS011;5956;51.428;6.682;2023-04-25T07:14:50;14.83;;;3.93;;
11797;SDS011;5956;51.428;6.682;2023-04-25T07:17:16;5.00;;;3.00;;
11797;SDS011;5956;51.428;6.682;2023-04-25T07:19:43;11.13;;;3.97;;
11797;SDS011;5956;51.428;6.682;2023-04-25T07:22:11;16.27;;;4.13;;
11797;SDS011;5956;51.428;6.682;2023-04-25T07:24:37;16.40;;;4.33;;
11797;SDS011;5956;51.428;6.682;2023-04-25T07:27:04;12.43;;;4.50;;
11797;SDS011;5956;51.428;6.682;2023-04-25T07:29:31;12.23;;;3.43;;
11797;SDS011;5956;51.428;6.682;2023-04-25T07:31:57;7.70;;;4.00;;
11797;SDS011;5956;51.428;6.682;2023-04-25T07:34:24;14.93;;;8.77;;
11797;SDS011;5956;51.428;6.682;2023-04-25T07:36:50;7.80;;;4.10;;
11797;SDS011;5956;51.428;6.682;2023-04-25T07:39:19;12.20;;;3.90;;
11797;SDS011;5956;51.428;6.682;2023-04-25T07:41:45;11.17;;;3.97;;
11797;SDS011;5956;51.428;6.682;2023-04-25T07:44:12;8.87;;;3.60;;
11797;SDS011;5956;51.428;6.682;2023-04-25T07:46:38;10.77;;;4.23;;
11797;SDS011;5956;51.428;6.682;2023-04-25T07:49:04;8.03;;;3.60;;
11797;SDS011;5956;51.428;6.682;2023-04-25T07:51:31;11.17;;;3.50;;
11797;SDS011;5956;51.428;6.682;2023-04-25T07:53:57;11.67;;;3.50;;
11797;SDS011;5956;51.428;6.682;2023-04-25T07:56:26;7.67;;;3.40;;
11797;SDS011;5956;51.428;6.682;2023-04-25T07:58:52;6.77;;;3.47;;
11797;SDS011;5956;51.428;6.682;2023-04-25T08:01:19;9.60;;;3.83;;
11797;SDS011;5956;51.428;6.682;2023-04-25T08:03:46;5.90;;;3.47;;
11797;SDS011;5956;51.428;6.682;2023-04-25T08:06:13;6.57;;;2.87;;
11797;SDS011;5956;51.428;6.682;2023-04-25T08:08:39;25.10;;;15.93;;
11797;SDS011;5956;51.428;6.682;2023-04-25T08:11:06;8.33;;;4.50;;
11797;SDS011;5956;51.428;6.682;2023-04-25T08:13:33;10.53;;;3.80;;
11797;SDS011;5956;51.428;6.682;2023-04-25T08:16:00;9.63;;;3.80;;
11797;SDS011;5956;51.428;6.682;2023-04-25T08:18:26;9.53;;;2.97;;
11797;SDS011;5956;51.428;6.682;2023-04-25T08:20:53;6.87;;;3.30;;
11797;SDS011;5956;51.428;6.682;2023-04-25T08:23:19;8.67;;;3.10;;
11797;SDS011;5956;51.428;6.682;2023-04-25T08:25:46;7.50;;;2.97;;
11797;SDS011;5956;51.428;6.682;2023-04-25T08:28:12;7.13;;;2.93;;
11797;SDS011;5956;51.428;6.682;2023-04-25T08:30:40;9.70;;;3.30;;
11797;SDS011;5956;51.428;6.682;2023-04-25T08:33:07;9.30;;;3.13;;
11797;SDS011;5956;51.428;6.682;2023-04-25T08:35:33;5.17;;;2.83;;
11797;SDS011;5956;51.428;6.682;2023-04-25T08:38:00;7.87;;;3.40;;
11797;SDS011;5956;51.428;6.682;2023-04-25T08:40:27;5.23;;;2.90;;
11797;SDS011;5956;51.428;6.682;2023-04-25T08:42:55;8.07;;;3.00;;
11797;SDS011;5956;51.428;6.682;2023-04-25T08:45:22;5.23;;;2.63;;
11797;SDS011;5956;51.428;6.682;2023-04-25T08:47:51;6.90;;;2.70;;
11797;SDS011;5956;51.428;6.682;2023-04-25T08:50:18;5.90;;;2.50;;
11797;SDS011;5956;51.428;6.682;2023-04-25T08:52:47;6.80;;;2.47;;
11797;SDS011;5956;51.428;6.682;2023-04-25T08:55:14;6.20;;;2.23;;
11797;SDS011;5956;51.428;6.682;2023-04-25T08:57:41;7.70;;;2.63;;
11797;SDS011;5956;51.428;6.682;2023-04-25T09:00:09;6.87;;;2.70;;
11797;SDS011;5956;51.428;6.682;2023-04-25T09:02:36;7.27;;;2.60;;
11797;SDS011;5956;51.428;6.682;2023-04-25T09:05:04;5.47;;;2.77;;
11797;SDS011;5956;51.428;6.682;2023-04-25T09:07:31;7.17;;;2.53;;
11797;SDS011;5956;51.428;6.682;2023-04-25T09:09:58;6.60;;;2.10;;
11797;SDS011;5956;51.428;6.682;2023-04-25T09:12:27;4.63;;;2.13;;
11797;SDS011;5956;51.428;6.682;2023-04-25T09:15:04;4.60;;;2.20;;
11797;SDS011;5956;51.428;6.682;2023-04-25T09:17:31;5.27;;;2.60;;
11797;SDS011;5956;51.428;6.682;2023-04-25T09:20:06;6.70;;;2.77;;
11797;SDS011;5956;51.428;6.682;2023-04-25T09:22:33;4.83;;;2.37;;
11797;SDS011;5956;51.428;6.682;2023-04-25T09:25:02;6.10;;;2.10;;
11797;SDS011;5956;51.428;6.682;2023-04-25T09:27:28;5.43;;;2.10;;
11797;SDS011;5956;51.428;6.682;2023-04-25T09:29:56;6.03;;;2.37;;
11797;SDS011;5956;51.428;6.682;2023-04-25T09:32:23;3.20;;;2.03;;
11797;SDS011;5956;51.428;6.682;2023-04-25T09:34:50;6.47;;;2.67;;
11797;SDS011;5956;51.428;6.682;2023-04-25T09:37:19;6.80;;;2.40;;
11797;SDS011;5956;51.428;6.682;2023-04-25T09:39:47;4.37;;;1.63;;
11797;SDS011;5956;51.428;6.682;2023-04-25T09:42:14;5.80;;;2.43;;
11797;SDS011;5956;51.428;6.682;2023-04-25T09:44:42;7.87;;;2.37;;
11797;SDS011;5956;51.428;6.682;2023-04-25T09:47:09;5.77;;;2.27;;
11797;SDS011;5956;51.428;6.682;2023-04-25T09:49:38;6.03;;;2.10;;
11797;SDS011;5956;51.428;6.682;2023-04-25T09:52:05;4.33;;;1.77;;
11797;SDS011;5956;51.428;6.682;2023-04-25T09:54:32;5.63;;;1.70;;
11797;SDS011;5956;51.428;6.682;2023-04-25T09:56:59;4.93;;;2.20;;
11797;SDS011;5956;51.428;6.682;2023-04-25T09:59:27;4.90;;;2.07;;
11797;SDS011;5956;51.428;6.682;2023-04-25T10:01:56;6.00;;;1.63;;
11797;SDS011;5956;51.428;6.682;2023-04-25T10:04:24;5.80;;;2.40;;
11797;SDS011;5956;51.428;6.682;2023-04-25T10:06:51;8.83;;;2.13;;
11797;SDS011;5956;51.428;6.682;2023-04-25T10:09:19;5.37;;;2.30;;
11797;SDS011;5956;51.428;6.682;2023-04-25T10:11:48;4.77;;;1.70;;
11797;SDS011;5956;51.428;6.682;2023-04-25T10:14:14;5.43;;;2.40;;
11797;SDS011;5956;51.428;6.682;2023-04-25T10:16:41;3.43;;;1.73;;
11797;SDS011;5956;51.428;6.682;2023-04-25T10:19:07;5.53;;;2.03;;
11797;SDS011;5956;51.428;6.682;2023-04-25T10:21:34;2.73;;;1.83;;
11797;SDS011;5956;51.428;6.682;2023-04-25T10:24:03;4.37;;;1.90;;
11797;SDS011;5956;51.428;6.682;2023-04-25T10:26:30;4.27;;;2.07;;
11797;SDS011;5956;51.428;6.682;2023-04-25T10:28:58;3.33;;;1.70;;
11797;SDS011;5956;51.428;6.682;2023-04-25T10:31:26;5.30;;;3.37;;
11797;SDS011;5956;51.428;6.682;2023-04-25T10:33:53;5.83;;;1.90;;
11797;SDS011;5956;51.428;6.682;2023-04-25T10:36:20;3.27;;;1.50;;
11797;SDS011;5956;51.428;6.682;2023-04-25T10:38:48;3.33;;;1.90;;
11797;SDS011;5956;51.428;6.682;2023-04-25T10:41:15;4.30;;;1.80;;
11797;SDS011;5956;51.428;6.682;2023-04-25T10:43:43;2.93;;;1.63;;
11797;SDS011;5956;51.428;6.682;2023-04-25T10:46:16;4.47;;;2.07;;
11797;SDS011;5956;51.428;6.682;2023-04-25T10:48:49;3.00;;;1.77;;
11797;SDS011;5956;51.428;6.682;2023-04-25T10:51:16;2.83;;;1.60;;
11797;SDS011;5956;51.428;6.682;2023-04-25T10:53:43;3.33;;;1.73;;
11797;SDS011;5956;51.428;6.682;2023-04-25T10:56:10;5.93;;;2.20;;
11797;SDS011;5956;51.428;6.682;2023-04-25T10:58:41;3.73;;;2.17;;
11797;SDS011;5956;51.428;6.682;2023-04-25T11:01:08;4.03;;;1.83;;
11797;SDS011;5956;51.428;6.682;2023-04-25T11:03:39;4.07;;;1.60;;
11797;SDS011;5956;51.428;6.682;2023-04-25T11:06:06;4.07;;;2.40;;
11797;SDS011;5956;51.428;6.682;2023-04-25T11:08:37;6.30;;;2.03;;
11797;SDS011;5956;51.428;6.682;2023-04-25T11:11:08;4.00;;;1.70;;
11797;SDS011;5956;51.428;6.682;2023-04-25T11:13:34;3.57;;;1.60;;
11797;SDS011;5956;51.428;6.682;2023-04-25T11:16:01;3.73;;;1.73;;
11797;SDS011;5956;51.428;6.682;2023-04-25T11:18:27;5.93;;;2.20;;
11797;SDS011;5956;51.428;6.682;2023-04-25T11:20:55;5.30;;;1.80;;
11797;SDS011;5956;51.428;6.682;2023-04-25T11:23:21;4.87;;;2.00;;
11797;SDS011;5956;51.428;6.682;2023-04-25T11:25:48;2.57;;;1.70;;
11797;SDS011;5956;51.428;6.682;2023-04-25T11:28:20;3.03;;;1.87;;
11797;SDS011;5956;51.428;6.682;2023-04-25T11:30:47;2.07;;;1.87;;
11797;SDS011;5956;51.428;6.682;2023-04-25T11:33:15;4.57;;;2.20;;
11797;SDS011;5956;51.428;6.682;2023-04-25T11:35:41;2.80;;;2.10;;
11797;SDS011;5956;51.428;6.682;2023-04-25T11:38:09;3.40;;;2.00;;
11797;SDS011;5956;51.428;6.682;2023-04-25T11:40:36;7.63;;;2.10;;
11797;SDS011;5956;51.428;6.682;2023-04-25T11:43:03;2.77;;;2.00;;
11797;SDS011;5956;51.428;6.682;2023-04-25T11:45:29;4.93;;;1.77;;
11797;SDS011;5956;51.428;6.682;2023-04-25T11:47:56;5.17;;;2.10;;
11797;SDS011;5956;51.428;6.682;2023-04-25T11:50:23;3.47;;;1.97;;
11797;SDS011;5956;51.428;6.682;2023-04-25T11:52:49;8.50;;;2.63;;
11797;SDS011;5956;51.428;6.682;2023-04-25T11:55:19;4.57;;;2.10;;
11797;SDS011;5956;51.428;6.682;2023-04-25T11:57:46;4.87;;;2.20;;
11797;SDS011;5956;51.428;6.682;2023-04-25T12:00:14;4.23;;;2.43;;
11797;SDS011;5956;51.428;6.682;2023-04-25T12:02:42;4.30;;;2.50;;
11797;SDS011;5956;51.428;6.682;2023-04-25T12:05:09;5.00;;;2.33;;
11797;SDS011;5956;51.428;6.682;2023-04-25T12:07:35;4.03;;;2.17;;
11797;SDS011;5956;51.428;6.682;2023-04-25T12:10:06;5.10;;;2.10;;
11797;SDS011;5956;51.428;6.682;2023-04-25T12:12:35;4.13;;;2.30;;
11797;SDS011;5956;51.428;6.682;2023-04-25T12:15:08;4.87;;;2.03;;
11797;SDS011;5956;51.428;6.682;2023-04-25T12:17:35;8.57;;;2.47;;
11797;SDS011;5956;51.428;6.682;2023-04-25T12:20:05;5.73;;;2.40;;
11797;SDS011;5956;51.428;6.682;2023-04-25T12:22:32;3.60;;;1.97;;
11797;SDS011;5956;51.428;6.682;2023-04-25T12:24:59;4.10;;;2.07;;
11797;SDS011;5956;51.428;6.682;2023-04-25T12:27:25;7.37;;;2.07;;
11797;SDS011;5956;51.428;6.682;2023-04-25T12:29:54;3.30;;;1.93;;
11797;SDS011;5956;51.428;6.682;2023-04-25T12:32:21;6.77;;;3.57;;
11797;SDS011;5956;51.428;6.682;2023-04-25T12:34:48;12.10;;;5.17;;
11797;SDS011;5956;51.428;6.682;2023-04-25T12:37:14;4.47;;;2.33;;
11797;SDS011;5956;51.428;6.682;2023-04-25T12:39:41;4.50;;;2.17;;
11797;SDS011;5956;51.428;6.682;2023-04-25T12:42:07;4.07;;;1.93;;
11797;SDS011;5956;51.428;6.682;2023-04-25T12:44:36;8.70;;;2.57;;
11797;SDS011;5956;51.428;6.682;2023-04-25T12:47:04;4.70;;;1.80;;
11797;SDS011;5956;51.428;6.682;2023-04-25T12:49:31;4.63;;;1.90;;
11797;SDS011;5956;51.428;6.682;2023-04-25T12:51:58;3.47;;;1.83;;
11797;SDS011;5956;51.428;6.682;2023-04-25T12:54:24;4.33;;;2.00;;
11797;SDS011;5956;51.428;6.682;2023-04-25T12:56:51;4.30;;;2.10;;
11797;SDS011;5956;51.428;6.682;2023-04-25T12:59:18;4.83;;;2.07;;
11797;SDS011;5956;51.428;6.682;2023-04-25T13:01:45;3.70;;;1.60;;
11797;SDS011;5956;51.428;6.682;2023-04-25T13:04:13;3.30;;;1.90;;
11797;SDS011;5956;51.428;6.682;2023-04-25T13:06:40;4.33;;;1.43;;
11797;SDS011;5956;51.428;6.682;2023-04-25T13:09:06;4.60;;;1.80;;
11797;SDS011;5956;51.428;6.682;2023-04-25T13:11:33;4.77;;;1.80;;
11797;SDS011;5956;51.428;6.682;2023-04-25T13:14:00;4.17;;;1.67;;
11797;SDS011;5956;51.428;6.682;2023-04-25T13:16:27;6.57;;;1.70;;
11797;SDS011;5956;51.428;6.682;2023-04-25T13:18:53;5.23;;;1.80;;
11797;SDS011;5956;51.428;6.682;2023-04-25T13:21:22;3.40;;;1.43;;
11797;SDS011;5956;51.428;6.682;2023-04-25T13:23:49;4.30;;;2.00;;
11797;SDS011;5956;51.428;6.682;2023-04-25T13:26:15;4.43;;;1.70;;
11797;SDS011;5956;51.428;6.682;2023-04-25T13:28:42;4.40;;;2.00;;
11797;SDS011;5956;51.428;6.682;2023-04-25T13:31:08;3.20;;;1.53;;
11797;SDS011;5956;51.428;6.682;2023-04-25T13:33:35;6.40;;;2.10;;
11797;SDS011;5956;51.428;6.682;2023-04-25T13:36:01;2.70;;;1.50;;
11797;SDS011;5956;51.428;6.682;2023-04-25T13:38:29;12.93;;;8.40;;
11797;SDS011;5956;51.428;6.682;2023-04-25T13:40:56;3.60;;;1.63;;
11797;SDS011;5956;51.428;6.682;2023-04-25T13:43:22;3.07;;;1.60;;
11797;SDS011;5956;51.428;6.682;2023-04-25T13:45:49;3.37;;;1.77;;
11797;SDS011;5956;51.428;6.682;2023-04-25T13:48:15;4.07;;;1.67;;
11797;SDS011;5956;51.428;6.682;2023-04-25T13:50:42;2.53;;;1.50;;
11797;SDS011;5956;51.428;6.682;2023-04-25T13:53:09;4.37;;;1.83;;
11797;SDS011;5956;51.428;6.682;2023-04-25T13:55:36;2.17;;;1.47;;
11797;SDS011;5956;51.428;6.682;2023-04-25T13:58:03;1.73;;;1.53;;
11797;SDS011;5956;51.428;6.682;2023-04-25T14:00:33;3.73;;;1.50;;
11797;SDS011;5956;51.428;6.682;2023-04-25T14:02:59;5.07;;;1.73;;
11797;SDS011;5956;51.428;6.682;2023-04-25T14:05:29;4.70;;;1.70;;
11797;SDS011;5956;51.428;6.682;2023-04-25T14:07:56;3.00;;;1.60;;
11797;SDS011;5956;51.428;6.682;2023-04-25T14:10:22;5.47;;;2.00;;
11797;SDS011;5956;51.428;6.682;2023-04-25T14:12:50;2.27;;;1.40;;
11797;SDS011;5956;51.428;6.682;2023-04-25T14:15:17;4.73;;;1.30;;
11797;SDS011;5956;51.428;6.682;2023-04-25T14:17:43;3.10;;;1.53;;
11797;SDS011;5956;51.428;6.682;2023-04-25T14:20:10;4.93;;;1.83;;
11797;SDS011;5956;51.428;6.682;2023-04-25T14:22:37;4.63;;;1.47;;
11797;SDS011;5956;51.428;6.682;2023-04-25T14:25:08;3.90;;;1.47;;
11797;SDS011;5956;51.428;6.682;2023-04-25T14:27:34;4.50;;;1.73;;
11797;SDS011;5956;51.428;6.682;2023-04-25T14:30:02;6.10;;;1.50;;
11797;SDS011;5956;51.428;6.682;2023-04-25T14:32:30;5.63;;;1.70;;
11797;SDS011;5956;51.428;6.682;2023-04-25T14:34:57;1.97;;;1.17;;
11797;SDS011;5956;51.428;6.682;2023-04-25T14:37:23;3.03;;;1.20;;
11797;SDS011;5956;51.428;6.682;2023-04-25T14:39:50;4.33;;;1.60;;
11797;SDS011;5956;51.428;6.682;2023-04-25T14:42:16;5.47;;;1.67;;
11797;SDS011;5956;51.428;6.682;2023-04-25T14:44:42;2.87;;;1.57;;
11797;SDS011;5956;51.428;6.682;2023-04-25T14:47:10;2.00;;;1.43;;
11797;SDS011;5956;51.428;6.682;2023-04-25T14:49:37;5.47;;;1.87;;
11797;SDS011;5956;51.428;6.682;2023-04-25T14:52:03;3.80;;;1.53;;
11797;SDS011;5956;51.428;6.682;2023-04-25T14:54:30;3.17;;;1.70;;